createdAt,value
2018-05-12T00:01:12.521Z,12.31
2018-05-12T00:03:40.158Z,12.34
2018-05-12T00:06:07.752Z,12.47
2018-05-12T00:08:35.338Z,12.32
2018-05-12T00:11:02.963Z,12.31
2018-05-12T00:13:30.548Z,12.33
2018-05-12T00:15:58.165Z,12.26
2018-05-12T00:18:25.795Z,12.25
2018-05-12T00:20:53.396Z,12.15
2018-05-12T00:23:20.985Z,12.20
2018-05-12T00:25:48.671Z,12.21
2018-05-12T00:28:16.277Z,12.21
2018-05-12T00:30:43.861Z,12.10
2018-05-12T00:33:11.492Z,12.07
2018-05-12T00:35:39.088Z,12.09
2018-05-12T00:38:06.685Z,12.06
2018-05-12T00:40:34.308Z,11.93
2018-05-12T00:43:02.011Z,11.88
2018-05-12T00:45:29.535Z,11.76
2018-05-12T00:47:57.152Z,11.69
2018-05-12T00:50:24.749Z,11.69
2018-05-12T00:52:52.326Z,11.69
2018-05-12T00:55:20.005Z,11.67
2018-05-12T00:57:47.589Z,11.69
2018-05-12T01:00:15.171Z,11.66
2018-05-12T01:02:42.796Z,11.65
2018-05-12T01:05:10.393Z,11.67
2018-05-12T01:07:37.978Z,11.64
2018-05-12T01:10:05.607Z,11.71
2018-05-12T01:12:33.189Z,11.68
2018-05-12T01:15:00.784Z,11.66
2018-05-12T01:17:28.435Z,11.69
2018-05-12T01:19:56.020Z,11.67
2018-05-12T01:22:23.625Z,11.69
2018-05-12T01:24:51.258Z,11.73
2018-05-12T01:27:18.865Z,11.75
2018-05-12T01:29:46.443Z,11.73
2018-05-12T01:32:14.109Z,11.66
2018-05-12T01:34:41.701Z,11.63
2018-05-12T01:37:09.291Z,11.62
2018-05-12T01:39:36.902Z,11.56
2018-05-12T01:42:04.489Z,11.60
2018-05-12T01:44:32.078Z,11.59
2018-05-12T01:46:59.735Z,11.54
2018-05-12T01:49:27.322Z,11.54
2018-05-12T01:51:54.912Z,11.52
2018-05-12T01:54:22.571Z,11.49
2018-05-12T01:56:50.168Z,11.52
2018-05-12T01:59:17.761Z,11.63
2018-05-12T02:01:45.387Z,11.64
2018-05-12T02:04:12.999Z,11.62
2018-05-12T02:06:40.592Z,11.72
2018-05-12T02:09:08.292Z,11.67
2018-05-12T02:11:35.857Z,11.73
2018-05-12T02:14:03.484Z,11.69
2018-05-12T02:16:31.123Z,11.77
2018-05-12T02:18:58.712Z,11.71
2018-05-12T02:21:26.314Z,11.70
2018-05-12T02:23:53.956Z,11.73
2018-05-12T02:26:21.545Z,11.77
2018-05-12T02:28:49.135Z,11.77
2018-05-12T02:31:16.810Z,11.77
2018-05-12T02:33:44.407Z,11.84
2018-05-12T02:36:12.046Z,11.94
2018-05-12T02:38:39.727Z,11.84
2018-05-12T02:41:07.312Z,11.80
2018-05-12T02:43:34.888Z,11.69
2018-05-12T02:46:02.495Z,11.58
2018-05-12T02:48:30.084Z,11.48
2018-05-12T02:50:57.667Z,11.39
2018-05-12T02:53:25.301Z,11.34
2018-05-12T02:55:52.892Z,11.35
2018-05-12T02:58:20.473Z,11.35
2018-05-12T03:00:48.100Z,11.44
2018-05-12T03:03:15.685Z,11.51
2018-05-12T03:05:43.276Z,11.58
2018-05-12T03:08:10.908Z,11.65
2018-05-12T03:10:38.510Z,11.65
2018-05-12T03:13:06.109Z,11.68
2018-05-12T03:15:33.743Z,11.71
2018-05-12T03:18:01.334Z,11.72
2018-05-12T03:20:28.976Z,11.72
2018-05-12T03:22:56.599Z,11.72
2018-05-12T03:25:24.194Z,11.74
2018-05-12T03:27:51.801Z,11.70
2018-05-12T03:30:19.427Z,11.69
2018-05-12T03:32:47.032Z,11.75
2018-05-12T03:35:14.626Z,11.76
2018-05-12T03:37:42.255Z,11.86
2018-05-12T03:40:09.843Z,11.96
2018-05-12T03:42:37.428Z,12.00
2018-05-12T03:45:05.084Z,11.95
2018-05-12T03:47:32.661Z,11.89
2018-05-12T03:50:00.256Z,11.96
2018-05-12T03:52:27.891Z,11.94
2018-05-12T03:54:55.571Z,12.12
2018-05-12T03:57:23.165Z,12.25
2018-05-12T03:59:50.825Z,12.31
2018-05-12T04:02:18.419Z,12.36
2018-05-12T04:04:57.868Z,12.41
2018-05-12T04:07:37.148Z,12.36
2018-05-12T04:10:16.468Z,12.41
2018-05-12T04:12:44.051Z,12.46
2018-05-12T04:15:11.623Z,12.60
2018-05-12T04:17:39.233Z,12.80
2018-05-12T04:20:06.817Z,12.94
2018-05-12T04:22:34.475Z,13.13
2018-05-12T04:25:02.098Z,13.38
2018-05-12T04:27:29.685Z,13.46
2018-05-12T04:29:57.254Z,13.44
2018-05-12T04:32:24.865Z,13.38
2018-05-12T04:34:52.456Z,13.52
2018-05-12T04:37:20.036Z,13.63
2018-05-12T04:39:47.649Z,13.91
2018-05-12T04:42:15.228Z,14.24
2018-05-12T04:44:42.794Z,14.23
2018-05-12T04:47:10.407Z,14.15
2018-05-12T04:49:37.996Z,13.91
2018-05-12T04:52:05.592Z,13.71
2018-05-12T04:54:33.222Z,13.50
2018-05-12T04:57:00.807Z,13.44
2018-05-12T04:59:28.389Z,13.39
2018-05-12T05:01:56.005Z,13.34
2018-05-12T05:04:23.603Z,13.92
2018-05-12T05:06:51.182Z,15.13
2018-05-12T05:09:18.783Z,15.60
2018-05-12T05:11:46.353Z,15.76
2018-05-12T05:14:13.927Z,15.45
2018-05-12T05:16:41.541Z,15.32
2018-05-12T05:19:09.124Z,15.09
2018-05-12T05:21:36.708Z,15.04
2018-05-12T05:24:04.330Z,15.40
2018-05-12T05:26:31.932Z,15.66
2018-05-12T05:28:59.549Z,15.88
2018-05-12T05:31:27.168Z,15.95
2018-05-12T05:33:54.755Z,16.03
2018-05-12T05:36:22.315Z,15.89
2018-05-12T05:38:49.936Z,16.20
2018-05-12T05:41:17.507Z,16.36
2018-05-12T05:43:45.086Z,17.04
2018-05-12T05:46:12.708Z,18.84
2018-05-12T05:48:40.298Z,19.77
2018-05-12T05:51:07.913Z,20.40
2018-05-12T05:53:35.493Z,21.86
2018-05-12T05:56:03.070Z,23.62
2018-05-12T05:58:30.638Z,24.56
2018-05-12T06:00:58.280Z,25.08
2018-05-12T06:03:25.860Z,25.34
2018-05-12T06:05:53.422Z,25.93
2018-05-12T06:08:21.042Z,26.17
2018-05-12T06:10:48.600Z,26.46
2018-05-12T06:13:16.171Z,26.66
2018-05-12T06:15:43.783Z,25.86
2018-05-12T06:18:11.403Z,25.78
2018-05-12T06:20:38.950Z,26.43
2018-05-12T06:23:06.594Z,27.11
2018-05-12T06:25:34.168Z,26.63
2018-05-12T06:28:01.749Z,27.12
2018-05-12T06:30:29.357Z,27.79
2018-05-12T06:32:56.972Z,28.39
2018-05-12T06:35:24.580Z,28.67
2018-05-12T06:37:52.186Z,28.42
2018-05-12T06:40:19.766Z,26.99
2018-05-12T06:42:47.342Z,26.65
2018-05-12T06:45:14.947Z,27.20
2018-05-12T06:47:42.515Z,27.97
2018-05-12T06:50:10.133Z,27.14
2018-05-12T06:52:37.743Z,26.77
2018-05-12T06:55:05.312Z,27.23
2018-05-12T06:57:32.905Z,28.17
2018-05-12T07:00:00.527Z,29.01
2018-05-12T07:02:28.094Z,29.40
2018-05-12T07:04:55.681Z,29.87
2018-05-12T07:07:23.338Z,29.47
2018-05-12T07:09:50.907Z,30.74
2018-05-12T07:12:18.530Z,30.93
2018-05-12T07:14:46.134Z,30.63
2018-05-12T07:17:13.712Z,29.74
2018-05-12T07:19:41.304Z,30.49
2018-05-12T07:22:08.920Z,30.98
2018-05-12T07:24:36.497Z,31.27
2018-05-12T07:27:04.048Z,30.97
2018-05-12T07:29:31.713Z,29.33
2018-05-12T07:31:59.302Z,27.50
2018-05-12T07:34:26.884Z,26.73
2018-05-12T07:36:54.489Z,26.41
2018-05-12T07:39:22.065Z,26.06
2018-05-12T07:41:49.637Z,26.49
2018-05-12T07:44:17.239Z,26.57
2018-05-12T07:46:44.811Z,26.68
2018-05-12T07:49:12.386Z,26.51
2018-05-12T07:51:40.258Z,27.57
2018-05-12T07:54:07.788Z,28.13
2018-05-12T07:56:35.381Z,27.37
2018-05-12T07:59:02.999Z,27.39
2018-05-12T08:01:30.571Z,27.68
2018-05-12T08:03:58.160Z,27.45
2018-05-12T08:06:25.763Z,28.55
2018-05-12T08:08:53.342Z,28.44
2018-05-12T08:11:20.932Z,27.52
2018-05-12T08:13:48.548Z,27.13
2018-05-12T08:16:16.175Z,26.48
2018-05-12T08:18:43.763Z,25.56
2018-05-12T08:21:11.382Z,25.36
2018-05-12T08:23:38.956Z,25.33
2018-05-12T08:26:06.602Z,25.23
2018-05-12T08:28:34.218Z,25.81
2018-05-12T08:31:01.807Z,25.64
2018-05-12T08:33:29.374Z,25.24
2018-05-12T08:35:57.066Z,26.11
2018-05-12T08:38:24.638Z,27.28
2018-05-12T08:40:52.218Z,28.05
2018-05-12T08:43:20.740Z,26.86
2018-05-12T08:45:48.309Z,24.99
2018-05-12T08:48:15.962Z,23.88
2018-05-12T08:50:43.531Z,23.66
2018-05-12T08:53:11.095Z,23.98
2018-05-12T08:55:38.681Z,24.49
2018-05-12T08:58:06.283Z,25.64
2018-05-12T09:00:33.855Z,26.12
2018-05-12T09:03:01.432Z,26.22
2018-05-12T09:05:29.049Z,27.14
2018-05-12T09:07:56.673Z,27.98
2018-05-12T09:10:24.252Z,28.02
2018-05-12T09:12:52.006Z,28.46
2018-05-12T09:15:19.645Z,27.82
2018-05-12T09:17:47.215Z,27.57
2018-05-12T09:20:14.834Z,27.35
2018-05-12T09:22:42.429Z,26.41
2018-05-12T09:25:10.018Z,24.88
2018-05-12T09:27:37.634Z,24.51
2018-05-12T09:30:05.212Z,24.85
2018-05-12T09:32:32.799Z,25.05
2018-05-12T09:35:00.432Z,25.80
2018-05-12T09:37:28.011Z,26.16
2018-05-12T09:39:55.589Z,26.27
2018-05-12T09:42:23.254Z,25.97
2018-05-12T09:44:50.854Z,26.25
2018-05-12T09:47:18.401Z,26.46
2018-05-12T09:49:46.027Z,26.50
2018-05-12T09:52:13.622Z,26.75
2018-05-12T09:54:41.199Z,26.32
2018-05-12T09:57:08.833Z,25.84
2018-05-12T09:59:36.662Z,26.82
2018-05-12T10:02:04.214Z,27.63
2018-05-12T10:04:31.828Z,26.83
2018-05-12T10:06:59.403Z,28.13
2018-05-12T10:09:26.985Z,27.58
2018-05-12T10:11:54.582Z,26.52
2018-05-12T10:14:22.152Z,26.02
2018-05-12T10:16:49.807Z,25.17
2018-05-12T10:19:17.469Z,24.27
2018-05-12T10:21:45.058Z,24.05
2018-05-12T10:24:12.687Z,23.98
2018-05-12T10:26:40.289Z,23.86
2018-05-12T10:29:07.865Z,23.89
2018-05-12T10:31:35.443Z,24.18
2018-05-12T10:34:03.070Z,23.68
2018-05-12T10:36:30.652Z,23.83
2018-05-12T10:38:58.286Z,24.05
2018-05-12T10:41:26.019Z,24.45
2018-05-12T10:43:53.630Z,24.99
2018-05-12T10:46:21.217Z,25.08
2018-05-12T10:48:48.905Z,25.31
2018-05-12T10:51:16.482Z,25.30
2018-05-12T10:53:44.077Z,24.73
2018-05-12T10:56:11.763Z,24.03
2018-05-12T10:58:39.437Z,24.00
2018-05-12T11:01:07.315Z,24.06
2018-05-12T11:03:34.929Z,23.69
2018-05-12T11:06:02.496Z,24.41
2018-05-12T11:08:30.178Z,25.90
2018-05-12T11:10:57.804Z,26.73
2018-05-12T11:13:25.409Z,27.75
2018-05-12T11:15:53.088Z,26.72
2018-05-12T11:18:20.754Z,27.46
2018-05-12T11:20:48.356Z,28.57
2018-05-12T11:23:16.060Z,28.60
2018-05-12T11:25:43.731Z,27.25
2018-05-12T11:28:11.294Z,26.87
2018-05-12T11:30:38.868Z,25.94
2018-05-12T11:33:10.051Z,25.12
2018-05-12T11:35:40.775Z,25.01
2018-05-12T11:38:12.487Z,25.94
2018-05-12T11:40:40.341Z,26.39
2018-05-12T11:43:07.926Z,26.53
2018-05-12T11:45:35.553Z,26.38
2018-05-12T11:48:03.140Z,25.70
2018-05-12T11:50:30.779Z,24.63
2018-05-12T11:52:58.552Z,23.66
2018-05-12T11:55:26.111Z,23.53
2018-05-12T11:57:53.685Z,23.61
2018-05-12T12:00:21.304Z,23.71
2018-05-12T12:02:48.884Z,23.71
2018-05-12T12:05:16.450Z,23.54
2018-05-12T12:07:44.051Z,23.92
2018-05-12T12:10:11.792Z,23.87
2018-05-12T12:12:39.358Z,24.00
2018-05-12T12:15:07.105Z,24.42
2018-05-12T12:17:34.775Z,25.24
2018-05-12T12:20:02.445Z,26.51
2018-05-12T12:22:30.067Z,27.91
2018-05-12T12:24:57.631Z,28.33
2018-05-12T12:27:25.206Z,28.54
2018-05-12T12:29:52.892Z,28.73
2018-05-12T12:32:20.549Z,28.69
2018-05-12T12:34:48.190Z,29.07
2018-05-12T12:37:15.802Z,27.88
2018-05-12T12:39:43.533Z,28.25
2018-05-12T12:42:11.181Z,27.75
2018-05-12T12:44:38.800Z,27.19
2018-05-12T12:47:06.372Z,26.42
2018-05-12T12:49:33.975Z,25.99
2018-05-12T12:52:01.586Z,25.61
2018-05-12T12:54:29.289Z,25.26
2018-05-12T12:56:56.878Z,24.67
2018-05-12T12:59:24.588Z,24.55
2018-05-12T13:01:52.276Z,24.52
2018-05-12T13:04:19.932Z,24.56
2018-05-12T13:06:47.601Z,24.55
2018-05-12T13:09:15.188Z,24.52
2018-05-12T13:11:42.939Z,24.62
2018-05-12T13:14:10.556Z,24.76
2018-05-12T13:16:38.148Z,24.80
2018-05-12T13:19:05.919Z,24.84
2018-05-12T13:21:33.734Z,24.28
2018-05-12T13:24:01.453Z,24.09
2018-05-12T13:26:29.099Z,23.71
2018-05-12T13:28:56.731Z,23.98
2018-05-12T13:31:24.321Z,24.15
2018-05-12T13:33:52.094Z,24.15
2018-05-12T13:36:19.754Z,24.20
2018-05-12T13:38:47.637Z,24.32
2018-05-12T13:41:15.475Z,24.15
2018-05-12T13:43:43.151Z,23.98
2018-05-12T13:46:10.748Z,23.64
2018-05-12T13:48:38.325Z,23.52
2018-05-12T13:51:05.937Z,23.34
2018-05-12T13:53:33.584Z,23.32
2018-05-12T13:56:01.413Z,23.49
2018-05-12T13:58:28.954Z,23.62
2018-05-12T14:00:56.534Z,23.44
2018-05-12T14:03:24.153Z,23.55
2018-05-12T14:05:52.005Z,23.56
2018-05-12T14:08:19.885Z,23.69
2018-05-12T14:10:47.464Z,23.71
2018-05-12T14:13:15.205Z,23.54
2018-05-12T14:15:42.781Z,23.26
2018-05-12T14:18:10.520Z,23.34
2018-05-12T14:20:38.404Z,23.47
2018-05-12T14:23:06.009Z,23.56
2018-05-12T14:25:33.726Z,23.51
2018-05-12T14:28:01.376Z,23.51
2018-05-12T14:30:29.043Z,23.48
2018-05-12T14:32:56.712Z,23.64
2018-05-12T14:35:24.343Z,23.50
2018-05-12T14:37:51.925Z,23.46
2018-05-12T14:40:19.513Z,23.46
2018-05-12T14:42:47.213Z,23.35
2018-05-12T14:45:14.788Z,23.46
2018-05-12T14:47:42.366Z,23.36
2018-05-12T14:50:10.130Z,23.19
2018-05-12T14:52:37.703Z,23.17
2018-05-12T14:55:05.646Z,23.21
2018-05-12T14:57:33.328Z,23.11
2018-05-12T15:00:00.990Z,22.97
2018-05-12T15:02:28.724Z,23.04
2018-05-12T15:04:56.521Z,23.03
2018-05-12T15:07:24.185Z,23.15
2018-05-12T15:09:51.800Z,23.22
2018-05-12T15:12:19.464Z,23.27
2018-05-12T15:14:47.054Z,23.42
2018-05-12T15:17:14.656Z,23.46
2018-05-12T15:19:42.259Z,23.48
2018-05-12T15:22:09.942Z,23.60
2018-05-12T15:24:37.620Z,23.69
2018-05-12T15:27:05.267Z,23.50
2018-05-12T15:29:32.945Z,23.39
2018-05-12T15:32:00.592Z,23.56
2018-05-12T15:34:28.197Z,23.68
2018-05-12T15:36:55.767Z,23.66
2018-05-12T15:39:23.349Z,23.67
2018-05-12T15:41:51.037Z,23.48
2018-05-12T15:44:18.716Z,23.30
2018-05-12T15:46:46.378Z,23.27
2018-05-12T15:49:14.228Z,23.18
2018-05-12T15:51:41.894Z,23.18
2018-05-12T15:54:09.479Z,23.16
2018-05-12T15:56:37.229Z,23.09
2018-05-12T15:59:04.836Z,22.93
2018-05-12T16:01:32.761Z,22.77
2018-05-12T16:04:00.392Z,22.72
2018-05-12T16:06:28.084Z,22.51
2018-05-12T16:08:55.658Z,22.48
2018-05-12T16:11:23.271Z,22.39
2018-05-12T16:13:50.842Z,22.27
2018-05-12T16:16:18.532Z,22.11
2018-05-12T16:18:46.143Z,21.95
2018-05-12T16:21:13.852Z,21.92
2018-05-12T16:23:41.419Z,21.89
2018-05-12T16:26:09.041Z,21.90
2018-05-12T16:28:36.819Z,21.94
2018-05-12T16:31:04.399Z,21.90
2018-05-12T16:33:32.155Z,21.84
2018-05-12T16:35:59.771Z,21.83
2018-05-12T16:38:27.490Z,21.81
2018-05-12T16:40:55.109Z,21.76
2018-05-12T16:43:22.678Z,21.69
2018-05-12T16:45:50.256Z,21.61
2018-05-12T16:48:17.895Z,21.63
2018-05-12T16:50:45.539Z,21.60
2018-05-12T16:53:13.243Z,21.58
2018-05-12T16:55:41.113Z,21.54
2018-05-12T16:58:08.777Z,21.40
2018-05-12T17:00:36.401Z,21.30
2018-05-12T17:03:04.016Z,21.27
2018-05-12T17:05:31.761Z,21.15
2018-05-12T17:07:59.641Z,21.05
2018-05-12T17:10:27.297Z,21.01
2018-05-12T17:12:54.951Z,20.92
2018-05-12T17:15:22.624Z,20.87
2018-05-12T17:17:50.276Z,20.78
2018-05-12T17:20:17.871Z,20.60
2018-05-12T17:22:45.453Z,20.52
2018-05-12T17:25:13.088Z,20.37
2018-05-12T17:27:40.734Z,20.27
2018-05-12T17:30:08.386Z,20.17
2018-05-12T17:32:36.001Z,20.17
2018-05-12T17:35:03.593Z,20.13
2018-05-12T17:37:31.164Z,20.05
2018-05-12T17:39:58.828Z,19.95
2018-05-12T17:42:26.506Z,19.88
2018-05-12T17:44:54.152Z,19.82
2018-05-12T17:47:21.936Z,19.75
2018-05-12T17:49:49.686Z,19.72
2018-05-12T17:52:17.260Z,19.72
2018-05-12T17:54:44.867Z,19.72
2018-05-12T17:57:12.468Z,19.74
2018-05-12T17:59:40.038Z,19.75
2018-05-12T18:02:07.799Z,19.74
2018-05-12T18:04:35.468Z,19.63
2018-05-12T18:07:03.044Z,19.53
2018-05-12T18:09:30.685Z,19.47
2018-05-12T18:11:58.433Z,19.40
2018-05-12T18:14:26.102Z,19.33
2018-05-12T18:16:53.752Z,19.27
2018-05-12T18:19:21.334Z,19.18
2018-05-12T18:21:48.901Z,19.12
2018-05-12T18:24:16.572Z,19.10
2018-05-12T18:26:44.155Z,19.09
2018-05-12T18:29:11.714Z,19.05
2018-05-12T18:31:39.317Z,19.01
2018-05-12T18:34:06.987Z,19.01
2018-05-12T18:36:34.850Z,18.95
2018-05-12T18:39:02.524Z,18.94
2018-05-12T18:41:30.108Z,18.86
2018-05-12T18:43:57.669Z,18.79
2018-05-12T18:46:25.307Z,18.77
2018-05-12T18:48:52.951Z,18.67
2018-05-12T18:51:20.512Z,18.50
2018-05-12T18:53:48.103Z,18.48
2018-05-12T18:56:15.740Z,18.47
2018-05-12T18:58:43.404Z,18.43
2018-05-12T19:01:11.076Z,18.42
2018-05-12T19:03:38.724Z,18.40
2018-05-12T19:06:06.304Z,18.37
2018-05-12T19:08:33.911Z,18.33
2018-05-12T19:11:01.493Z,18.37
2018-05-12T19:13:29.084Z,18.34
2018-05-12T19:15:56.692Z,18.29
2018-05-12T19:18:24.306Z,18.23
2018-05-12T19:20:51.866Z,18.12
2018-05-12T19:23:19.612Z,18.13
2018-05-12T19:25:47.186Z,18.13
2018-05-12T19:28:14.943Z,18.09
2018-05-12T19:30:42.539Z,18.01
2018-05-12T19:33:10.107Z,18.06
2018-05-12T19:35:37.944Z,17.96
2018-05-12T19:38:05.787Z,17.88
2018-05-12T19:40:33.459Z,17.85
2018-05-12T19:43:01.112Z,17.86
2018-05-12T19:45:28.704Z,17.90
2018-05-12T19:47:56.261Z,17.90
2018-05-12T19:50:23.841Z,17.83
2018-05-12T19:52:51.435Z,17.73
2018-05-12T19:55:19.022Z,17.67
2018-05-12T19:57:46.598Z,17.64
2018-05-12T20:00:14.259Z,17.69
2018-05-12T20:02:41.839Z,17.67
2018-05-12T20:05:09.520Z,17.66
2018-05-12T20:07:37.124Z,17.53
2018-05-12T20:10:04.701Z,17.54
2018-05-12T20:12:32.278Z,17.46
2018-05-12T20:14:59.992Z,17.42
2018-05-12T20:17:27.604Z,17.37
2018-05-12T20:19:55.363Z,17.25
2018-05-12T20:22:23.145Z,17.21
2018-05-12T20:24:50.762Z,17.17
2018-05-12T20:27:18.379Z,17.16
2018-05-12T20:29:46.417Z,17.04
2018-05-12T20:32:14.250Z,17.03
2018-05-12T20:34:42.857Z,16.93
2018-05-12T20:37:10.756Z,16.91
2018-05-12T20:39:38.383Z,16.84
2018-05-12T20:42:05.975Z,16.81
2018-05-12T20:44:33.574Z,16.80
2018-05-12T20:47:01.202Z,16.72
2018-05-12T20:49:28.778Z,16.72
2018-05-12T20:51:56.381Z,16.79
2018-05-12T20:54:23.972Z,16.78
2018-05-12T20:56:51.557Z,16.75
2018-05-12T20:59:19.149Z,16.68
2018-05-12T21:01:46.825Z,16.73
2018-05-12T21:04:14.408Z,16.71
2018-05-12T21:06:42.037Z,16.72
2018-05-12T21:09:09.636Z,16.73
2018-05-12T21:11:37.225Z,16.83
2018-05-12T21:14:04.859Z,16.82
2018-05-12T21:16:32.458Z,16.78
2018-05-12T21:19:00.169Z,16.74
2018-05-12T21:21:27.774Z,16.70
2018-05-12T21:23:55.441Z,16.75
2018-05-12T21:26:23.036Z,16.68
2018-05-12T21:28:50.716Z,16.57
2018-05-12T21:31:18.274Z,16.58
2018-05-12T21:33:45.848Z,16.47
2018-05-12T21:36:13.499Z,16.29
2018-05-12T21:38:41.056Z,16.29
2018-05-12T21:41:08.650Z,16.23
2018-05-12T21:43:36.264Z,16.20
2018-05-12T21:46:03.857Z,16.22
2018-05-12T21:48:31.469Z,16.16
2018-05-12T21:50:59.084Z,16.13
2018-05-12T21:53:26.653Z,16.07
2018-05-12T21:55:54.260Z,16.01
2018-05-12T21:58:22.152Z,15.99
2018-05-12T22:00:49.748Z,15.96
2018-05-12T22:03:17.351Z,15.90
2018-05-12T22:05:44.962Z,15.94
2018-05-12T22:08:12.627Z,15.93
2018-05-12T22:10:40.197Z,15.91
2018-05-12T22:13:07.900Z,15.87
2018-05-12T22:15:35.494Z,15.86
2018-05-12T22:18:03.139Z,15.85
2018-05-12T22:20:30.860Z,15.75
2018-05-12T22:22:59.184Z,15.66
2018-05-12T22:25:26.850Z,15.57
2018-05-12T22:27:54.500Z,15.34
2018-05-12T22:30:22.135Z,15.22
2018-05-12T22:32:49.708Z,15.04
2018-05-12T22:35:17.320Z,14.97
2018-05-12T22:37:44.894Z,14.82
2018-05-12T22:40:12.519Z,14.71
2018-05-12T22:42:40.275Z,14.65
2018-05-12T22:45:07.919Z,14.70
2018-05-12T22:47:35.501Z,14.82
2018-05-12T22:50:03.108Z,14.96
2018-05-12T22:52:30.856Z,15.05
2018-05-12T22:54:58.443Z,15.01
2018-05-12T22:57:26.231Z,14.83
2018-05-12T22:59:53.836Z,14.58
2018-05-12T23:02:21.403Z,14.38
2018-05-12T23:04:49.032Z,14.18
2018-05-12T23:07:16.645Z,14.11
2018-05-12T23:09:44.255Z,14.03
2018-05-12T23:12:11.890Z,13.93
2018-05-12T23:14:39.482Z,13.87
2018-05-12T23:17:07.052Z,13.73
2018-05-12T23:19:34.684Z,13.65
2018-05-12T23:22:02.276Z,13.52
2018-05-12T23:24:29.850Z,13.42
2018-05-12T23:26:57.460Z,13.54
2018-05-12T23:29:25.027Z,13.57
2018-05-12T23:31:52.604Z,13.71
2018-05-12T23:34:20.236Z,13.78
2018-05-12T23:36:47.846Z,13.88
2018-05-12T23:39:15.438Z,13.86
2018-05-12T23:41:43.057Z,13.92
2018-05-12T23:44:10.633Z,13.91
2018-05-12T23:46:38.218Z,13.89
2018-05-12T23:49:05.823Z,13.91
2018-05-12T23:51:33.488Z,13.76
2018-05-12T23:54:01.059Z,13.62
2018-05-12T23:56:28.661Z,13.46
2018-05-12T23:58:56.320Z,13.32
